createdAt,value
2023-05-19T00:01:53.412Z,102783.69
2023-05-19T00:04:21.335Z,102788.91
2023-05-19T00:06:51.119Z,102781.50
2023-05-19T00:09:18.174Z,102772.28
2023-05-19T00:11:45.112Z,102785.09
2023-05-19T00:14:12.034Z,102785.16
2023-05-19T00:16:39.320Z,102781.06
2023-05-19T00:19:06.637Z,102787.22
2023-05-19T00:21:33.557Z,102781.38
2023-05-19T00:24:00.339Z,102784.22
2023-05-19T00:26:27.750Z,102780.91
2023-05-19T00:28:54.514Z,102799.97
2023-05-19T00:31:21.404Z,102788.13
2023-05-19T00:33:48.198Z,102760.28
2023-05-19T00:36:15.041Z,102784.91
2023-05-19T00:38:41.772Z,102789.53
2023-05-19T00:41:08.533Z,102784.66
2023-05-19T00:43:35.409Z,102792.13
2023-05-19T00:46:02.358Z,102794.00
2023-05-19T00:48:29.272Z,102791.41
2023-05-19T00:51:07.421Z,102798.31
2023-05-19T00:53:34.367Z,102795.84
2023-05-19T00:56:01.293Z,102784.03
2023-05-19T00:58:30.418Z,102777.69
2023-05-19T01:01:03.842Z,102796.41
2023-05-19T01:03:35.728Z,102800.56
2023-05-19T01:06:07.520Z,102796.28
2023-05-19T01:08:35.183Z,102793.78
2023-05-19T01:11:01.940Z,102788.19
2023-05-19T01:13:28.780Z,102787.16
2023-05-19T01:16:25.146Z,102784.53
2023-05-19T01:19:11.037Z,102795.72
2023-05-19T01:21:56.620Z,102794.94
2023-05-19T01:24:23.329Z,102804.53
2023-05-19T01:27:14.934Z,102796.03
2023-05-19T01:30:03.193Z,102792.56
2023-05-19T01:32:29.896Z,102802.97
2023-05-19T01:34:56.758Z,102786.59
2023-05-19T01:37:23.535Z,102791.63
2023-05-19T01:39:50.508Z,102787.91
2023-05-19T01:42:17.296Z,102780.38
2023-05-19T01:44:44.239Z,102780.31
2023-05-19T01:47:11.180Z,102792.22
2023-05-19T01:49:38.077Z,102794.63
2023-05-19T01:52:05.079Z,102787.69
2023-05-19T01:54:31.818Z,102786.00
2023-05-19T01:57:19.699Z,102775.59
2023-05-19T01:59:56.957Z,102787.56
2023-05-19T02:02:32.220Z,102789.31
2023-05-19T02:05:03.212Z,102787.44
2023-05-19T02:07:42.501Z,102785.88
2023-05-19T02:10:15.215Z,102784.03
2023-05-19T02:12:41.985Z,102776.44
2023-05-19T02:15:12.054Z,102778.72
2023-05-19T02:17:41.652Z,102771.75
2023-05-19T02:20:12.025Z,102777.50
2023-05-19T02:22:38.994Z,102776.47
2023-05-19T02:25:06.105Z,102774.78
2023-05-19T02:27:33.944Z,102768.00
2023-05-19T02:30:00.771Z,102784.03
2023-05-19T02:32:27.662Z,102777.84
2023-05-19T02:34:56.589Z,102777.47
2023-05-19T02:37:28.655Z,102755.03
2023-05-19T02:39:55.639Z,102762.56
2023-05-19T02:42:22.463Z,102763.88
2023-05-19T02:44:49.314Z,102752.75
2023-05-19T02:47:16.032Z,102752.63
2023-05-19T02:49:44.192Z,102754.09
2023-05-19T02:52:12.152Z,102764.19
2023-05-19T02:54:38.935Z,102753.00
2023-05-19T02:57:05.713Z,102756.25
2023-05-19T02:59:32.410Z,102757.53
2023-05-19T03:02:02.431Z,102764.94
2023-05-19T03:04:29.922Z,102755.16
2023-05-19T03:06:57.722Z,102769.13
2023-05-19T03:09:24.638Z,102751.41
2023-05-19T03:11:51.477Z,102764.69
2023-05-19T03:14:18.836Z,102767.50
2023-05-19T03:16:45.989Z,102775.50
2023-05-19T03:19:13.013Z,102770.47
2023-05-19T03:21:39.839Z,102770.75
2023-05-19T03:24:07.209Z,102760.53
2023-05-19T03:26:33.976Z,102763.25
2023-05-19T03:29:01.074Z,102760.72
2023-05-19T03:31:28.503Z,102753.97
2023-05-19T03:33:55.376Z,102766.75
2023-05-19T03:36:22.691Z,102768.44
2023-05-19T03:38:49.539Z,102760.88
2023-05-19T03:41:16.380Z,102770.06
2023-05-19T03:43:43.232Z,102763.94
2023-05-19T03:46:10.104Z,102763.13
2023-05-19T03:48:36.969Z,102769.16
2023-05-19T03:51:04.486Z,102772.63
2023-05-19T03:53:31.276Z,102762.13
2023-05-19T03:55:58.066Z,102764.72
2023-05-19T03:58:24.996Z,102769.00
2023-05-19T04:00:51.952Z,102779.09
2023-05-19T04:03:18.878Z,102773.03
2023-05-19T04:05:45.754Z,102776.91
2023-05-19T04:08:12.555Z,102770.66
2023-05-19T04:10:39.374Z,102776.53
2023-05-19T04:13:06.293Z,102775.69
2023-05-19T04:15:33.160Z,102770.69
2023-05-19T04:17:59.992Z,102769.16
2023-05-19T04:20:26.843Z,102770.06
2023-05-19T04:22:53.655Z,102768.47
2023-05-19T04:25:20.585Z,102766.84
2023-05-19T04:27:48.597Z,102770.56
2023-05-19T04:30:22.340Z,102753.06
2023-05-19T04:32:50.995Z,102771.56
2023-05-19T04:35:17.971Z,102757.63
2023-05-19T04:37:48.544Z,102758.16
2023-05-19T04:40:16.120Z,102760.69
2023-05-19T04:42:45.859Z,102757.94
2023-05-19T04:45:14.126Z,102766.03
2023-05-19T04:47:42.081Z,102763.25
2023-05-19T04:50:11.189Z,102769.25
2023-05-19T04:52:38.087Z,102772.00
2023-05-19T04:55:05.265Z,102767.31
2023-05-19T04:57:32.224Z,102759.34
2023-05-19T05:00:00.469Z,102773.88
2023-05-19T05:02:30.126Z,102779.09
2023-05-19T05:04:56.985Z,102762.69
2023-05-19T05:07:23.977Z,102771.38
2023-05-19T05:09:50.941Z,102765.31
2023-05-19T05:12:18.900Z,102778.97
2023-05-19T05:14:46.148Z,102774.78
2023-05-19T05:17:13.840Z,102770.56
2023-05-19T05:19:40.981Z,102775.75
2023-05-19T05:22:08.208Z,102773.91
2023-05-19T05:24:35.388Z,102771.81
2023-05-19T05:27:02.216Z,102766.28
2023-05-19T05:29:29.041Z,102762.97
2023-05-19T05:31:56.042Z,102763.84
2023-05-19T05:34:22.872Z,102777.75
2023-05-19T05:36:49.806Z,102759.69
2023-05-19T05:39:16.615Z,102770.50
2023-05-19T05:41:43.438Z,102775.06
2023-05-19T05:44:10.355Z,102770.28
2023-05-19T05:46:37.336Z,102764.72
2023-05-19T05:49:04.377Z,102779.09
2023-05-19T05:51:33.028Z,102778.13
2023-05-19T05:54:00.003Z,102781.63
2023-05-19T05:56:27.804Z,102775.25
2023-05-19T05:58:54.644Z,102773.75
2023-05-19T06:01:22.025Z,102778.66
2023-05-19T06:03:48.879Z,102777.06
2023-05-19T06:06:15.787Z,102783.41
2023-05-19T06:08:42.628Z,102780.88
2023-05-19T06:11:09.607Z,102781.75
2023-05-19T06:13:36.771Z,102786.69
2023-05-19T06:16:03.846Z,102783.19
2023-05-19T06:18:30.762Z,102783.75
2023-05-19T06:20:57.600Z,102780.84
2023-05-19T06:23:25.349Z,102783.88
2023-05-19T06:25:52.366Z,102789.88
2023-05-19T06:28:19.180Z,102786.16
2023-05-19T06:30:46.069Z,102783.00
2023-05-19T06:33:12.899Z,102785.13
2023-05-19T06:35:39.842Z,102798.06
2023-05-19T06:38:07.922Z,102791.72
2023-05-19T06:40:35.059Z,102784.59
2023-05-19T06:43:02.091Z,102784.94
2023-05-19T06:45:29.084Z,102791.16
2023-05-19T06:47:58.467Z,102789.75
2023-05-19T06:50:25.701Z,102775.25
2023-05-19T06:52:52.722Z,102778.78
2023-05-19T06:55:19.757Z,102780.84
2023-05-19T06:57:46.621Z,102780.00
2023-05-19T07:00:16.784Z,102782.94
2023-05-19T07:02:45.237Z,102779.41
2023-05-19T07:05:12.200Z,102781.47
2023-05-19T07:07:39.099Z,102767.50
2023-05-19T07:10:06.563Z,102768.84
2023-05-19T07:12:33.387Z,102771.31
2023-05-19T07:15:00.308Z,102776.97
2023-05-19T07:17:27.140Z,102770.38
2023-05-19T07:19:54.054Z,102775.50
2023-05-19T07:22:21.346Z,102777.34
2023-05-19T07:24:48.185Z,102778.22
2023-05-19T07:27:15.115Z,102774.94
2023-05-19T07:29:41.962Z,102778.69
2023-05-19T07:32:08.877Z,102782.44
2023-05-19T07:34:35.791Z,102787.28
2023-05-19T07:37:03.513Z,102786.25
2023-05-19T07:39:32.392Z,102784.78
2023-05-19T07:41:59.401Z,102792.38
2023-05-19T07:44:27.254Z,102794.06
2023-05-19T07:46:54.662Z,102793.03
2023-05-19T07:49:21.486Z,102803.75
2023-05-19T07:51:48.799Z,102789.53
2023-05-19T07:54:15.630Z,102787.28
2023-05-19T07:56:42.458Z,102789.69
2023-05-19T07:59:09.396Z,102786.38
2023-05-19T08:01:36.296Z,102788.22
2023-05-19T08:04:03.549Z,102793.13
2023-05-19T08:06:31.834Z,102788.66
2023-05-19T08:08:58.738Z,102787.81
2023-05-19T08:11:25.901Z,102784.97
2023-05-19T08:13:52.846Z,102790.09
2023-05-19T08:16:19.796Z,102780.22
2023-05-19T08:18:46.727Z,102780.22
2023-05-19T08:21:13.562Z,102781.81
2023-05-19T08:23:40.510Z,102784.31
2023-05-19T08:26:07.404Z,102784.03
2023-05-19T08:28:34.385Z,102783.84
2023-05-19T08:31:01.317Z,102781.44
2023-05-19T08:33:28.433Z,102787.44
2023-05-19T08:35:58.182Z,102790.94
2023-05-19T08:38:26.387Z,102783.81
2023-05-19T08:40:53.338Z,102790.56
2023-05-19T08:43:20.258Z,102782.06
2023-05-19T08:45:48.462Z,102784.63
2023-05-19T08:48:16.993Z,102793.59
2023-05-19T08:50:47.429Z,102794.06
2023-05-19T08:53:32.513Z,102781.22
2023-05-19T08:56:22.614Z,102789.25
2023-05-19T08:58:50.235Z,102779.75
2023-05-19T09:01:17.802Z,102784.50
2023-05-19T09:03:49.910Z,102793.25
2023-05-19T09:06:17.178Z,102794.28
2023-05-19T09:08:44.117Z,102800.09
2023-05-19T09:11:11.095Z,102787.84
2023-05-19T09:13:37.841Z,102800.09
2023-05-19T09:16:04.763Z,102784.94
2023-05-19T09:18:31.864Z,102787.63
2023-05-19T09:21:00.350Z,102777.53
2023-05-19T09:23:36.368Z,102770.31
2023-05-19T09:26:04.508Z,102774.00
2023-05-19T09:28:33.412Z,102779.00
2023-05-19T09:31:04.640Z,102773.16
2023-05-19T09:33:33.807Z,102761.69
2023-05-19T09:36:00.746Z,102767.88
2023-05-19T09:38:27.840Z,102769.94
2023-05-19T09:40:57.253Z,102776.50
2023-05-19T09:43:24.180Z,102778.38
2023-05-19T09:46:12.955Z,102782.25
2023-05-19T09:48:41.121Z,102766.38
2023-05-19T09:51:08.317Z,102770.63
2023-05-19T09:53:35.098Z,102760.78
2023-05-19T09:56:02.306Z,102772.72
2023-05-19T09:58:34.769Z,102757.78
2023-05-19T10:01:01.743Z,102755.84
2023-05-19T10:03:28.484Z,102764.34
2023-05-19T10:05:55.323Z,102766.19
2023-05-19T10:08:24.154Z,102768.22
2023-05-19T10:10:50.926Z,102774.13
2023-05-19T10:13:17.670Z,102762.13
2023-05-19T10:15:57.443Z,102760.53
2023-05-19T10:18:26.697Z,102770.19
2023-05-19T10:20:53.558Z,102767.03
2023-05-19T10:23:20.273Z,102759.25
2023-05-19T10:25:47.872Z,102753.63
2023-05-19T10:28:16.363Z,102761.97
2023-05-19T10:30:45.546Z,102755.91
2023-05-19T10:33:19.020Z,102757.56
2023-05-19T10:35:54.594Z,102769.66
2023-05-19T10:38:43.082Z,102775.72
2023-05-19T10:41:24.766Z,102765.19
2023-05-19T10:44:31.052Z,102765.84
2023-05-19T10:46:57.853Z,102771.47
2023-05-19T10:49:24.622Z,102761.78
2023-05-19T10:51:56.164Z,102764.03
2023-05-19T10:54:43.619Z,102777.47
2023-05-19T10:57:15.016Z,102765.63
2023-05-19T10:59:42.123Z,102767.69
2023-05-19T11:02:09.218Z,102766.53
2023-05-19T11:04:58.459Z,102766.97
2023-05-19T11:07:25.280Z,102760.81
2023-05-19T11:09:52.449Z,102766.97
2023-05-19T11:12:24.799Z,102761.84
2023-05-19T11:14:55.528Z,102769.72
2023-05-19T11:17:23.802Z,102762.16
2023-05-19T11:19:57.636Z,102768.25
2023-05-19T11:22:26.161Z,102761.31
2023-05-19T11:24:54.775Z,102759.00
2023-05-19T11:27:22.962Z,102772.72
2023-05-19T11:29:49.921Z,102774.88
2023-05-19T11:32:16.721Z,102781.38
2023-05-19T11:34:44.674Z,102761.69
2023-05-19T11:37:11.568Z,102771.69
2023-05-19T11:39:39.348Z,102770.47
2023-05-19T11:42:06.378Z,102774.28
2023-05-19T11:44:33.166Z,102775.59
2023-05-19T11:47:00.182Z,102770.59
2023-05-19T11:49:29.491Z,102773.00
2023-05-19T11:51:56.340Z,102777.25
2023-05-19T11:54:36.779Z,102783.25
2023-05-19T11:57:03.949Z,102775.56
2023-05-19T11:59:36.035Z,102786.88
2023-05-19T12:02:14.094Z,102801.66
2023-05-19T12:04:41.094Z,102808.25
2023-05-19T12:07:08.284Z,102808.13
2023-05-19T12:09:35.775Z,102795.94
2023-05-19T12:12:03.055Z,102804.94
2023-05-19T12:14:30.234Z,102808.59
2023-05-19T12:16:57.602Z,102805.63
2023-05-19T12:19:25.988Z,102816.50
2023-05-19T12:21:53.276Z,102813.94
2023-05-19T12:24:20.740Z,102819.06
2023-05-19T12:26:50.248Z,102823.41
2023-05-19T12:29:17.314Z,102818.69
2023-05-19T12:31:46.586Z,102822.53
2023-05-19T12:34:13.395Z,102810.38
2023-05-19T12:36:41.480Z,102820.25
2023-05-19T12:39:08.315Z,102827.75
2023-05-19T12:41:35.036Z,102817.09
2023-05-19T12:44:01.756Z,102820.38
2023-05-19T12:46:29.030Z,102825.00
2023-05-19T12:49:00.774Z,102815.47
2023-05-19T12:51:27.549Z,102811.59
2023-05-19T12:53:54.262Z,102810.09
2023-05-19T12:56:21.315Z,102814.41
2023-05-19T12:58:48.055Z,102800.91
2023-05-19T13:01:18.674Z,102799.84
2023-05-19T13:03:46.197Z,102807.78
2023-05-19T13:06:13.148Z,102801.47
2023-05-19T13:08:41.548Z,102795.03
2023-05-19T13:11:08.297Z,102807.81
2023-05-19T13:13:35.047Z,102811.66
2023-05-19T13:16:01.824Z,102808.66
2023-05-19T13:18:32.130Z,102796.50
2023-05-19T13:20:58.978Z,102815.72
2023-05-19T13:23:26.357Z,102803.75
2023-05-19T13:25:53.185Z,102794.06
2023-05-19T13:28:19.916Z,102806.25
2023-05-19T13:30:46.797Z,102802.03
2023-05-19T13:33:13.683Z,102778.38
2023-05-19T13:35:40.548Z,102797.84
2023-05-19T13:38:09.655Z,102800.66
2023-05-19T13:40:36.913Z,102782.31
2023-05-19T13:43:04.102Z,102779.66
2023-05-19T13:45:30.933Z,102782.31
2023-05-19T13:47:57.760Z,102778.09
2023-05-19T13:50:24.570Z,102774.34
2023-05-19T13:52:51.328Z,102792.38
2023-05-19T13:55:18.348Z,102765.09
2023-05-19T13:57:45.085Z,102783.19
2023-05-19T14:00:12.190Z,102782.72
2023-05-19T14:02:39.931Z,102781.19
2023-05-19T14:05:07.581Z,102773.88
2023-05-19T14:07:37.116Z,102780.56
2023-05-19T14:10:06.832Z,102781.09
2023-05-19T14:12:45.125Z,102776.91
2023-05-19T14:15:21.474Z,102796.69
2023-05-19T14:17:49.270Z,102780.44
2023-05-19T14:20:16.197Z,102795.03
2023-05-19T14:22:43.035Z,102801.34
2023-05-19T14:25:09.977Z,102806.16
2023-05-19T14:27:36.877Z,102803.69
2023-05-19T14:30:03.903Z,102811.06
2023-05-19T14:32:30.792Z,102808.69
2023-05-19T14:34:57.608Z,102807.56
2023-05-19T14:37:26.602Z,102808.53
2023-05-19T14:39:53.641Z,102815.53
2023-05-19T14:42:20.466Z,102804.19
2023-05-19T14:44:47.355Z,102806.97
2023-05-19T14:47:14.225Z,102803.06
2023-05-19T14:49:41.074Z,102781.38
2023-05-19T14:52:07.832Z,102787.59
2023-05-19T14:54:34.672Z,102787.25
2023-05-19T14:57:01.704Z,102782.56
2023-05-19T14:59:29.739Z,102763.25
2023-05-19T15:01:56.558Z,102765.56
2023-05-19T15:04:23.499Z,102781.56
2023-05-19T15:07:05.868Z,102775.13
2023-05-19T15:09:36.835Z,102769.22
2023-05-19T15:12:03.653Z,102784.34
2023-05-19T15:14:30.979Z,102778.94
2023-05-19T15:16:58.539Z,102781.25
2023-05-19T15:19:26.187Z,102765.97
2023-05-19T15:21:53.199Z,102762.97
2023-05-19T15:24:20.062Z,102766.41
2023-05-19T15:26:47.308Z,102768.44
2023-05-19T15:29:14.186Z,102761.25
2023-05-19T15:31:41.260Z,102776.88
2023-05-19T15:34:08.386Z,102758.88
2023-05-19T15:36:35.666Z,102765.59
2023-05-19T15:39:03.793Z,102764.75
2023-05-19T15:41:30.817Z,102762.91
2023-05-19T15:44:00.212Z,102777.16
2023-05-19T15:46:27.416Z,102768.22
2023-05-19T15:48:54.307Z,102783.97
2023-05-19T15:51:21.210Z,102748.16
2023-05-19T15:53:48.146Z,102749.94
2023-05-19T15:56:15.169Z,102775.97
2023-05-19T15:58:42.174Z,102779.00
2023-05-19T16:01:08.974Z,102765.38
2023-05-19T16:03:35.903Z,102764.00
2023-05-19T16:06:16.773Z,102772.19
2023-05-19T16:08:43.529Z,102745.47
2023-05-19T16:11:10.562Z,102760.03
2023-05-19T16:13:37.279Z,102741.81
2023-05-19T16:16:04.259Z,102747.59
2023-05-19T16:18:31.075Z,102749.91
2023-05-19T16:20:57.885Z,102750.28
2023-05-19T16:23:25.114Z,102752.91
2023-05-19T16:25:52.335Z,102757.13
2023-05-19T16:28:19.489Z,102752.19
2023-05-19T16:30:46.328Z,102749.44
2023-05-19T16:33:13.188Z,102741.03
2023-05-19T16:35:40.058Z,102740.22
2023-05-19T16:38:06.916Z,102754.97
2023-05-19T16:40:33.937Z,102750.31
2023-05-19T16:43:01.160Z,102751.16
2023-05-19T16:45:27.964Z,102750.31
2023-05-19T16:47:54.904Z,102761.94
2023-05-19T16:50:21.667Z,102746.56
2023-05-19T16:52:48.470Z,102761.34
2023-05-19T16:55:19.734Z,102767.94
2023-05-19T16:57:47.063Z,102755.38
2023-05-19T17:00:14.605Z,102763.00
2023-05-19T17:02:41.566Z,102758.13
2023-05-19T17:05:08.876Z,102747.44
2023-05-19T17:07:35.692Z,102765.09
2023-05-19T17:10:02.472Z,102745.56
2023-05-19T17:12:29.259Z,102751.78
2023-05-19T17:14:57.100Z,102759.84
2023-05-19T17:17:23.895Z,102750.03
2023-05-19T17:19:50.728Z,102754.47
2023-05-19T17:22:17.552Z,102769.22
2023-05-19T17:24:44.425Z,102760.25
2023-05-19T17:27:11.201Z,102760.00
2023-05-19T17:29:37.937Z,102746.72
2023-05-19T17:32:05.004Z,102768.41
2023-05-19T17:34:31.870Z,102747.34
2023-05-19T17:36:58.613Z,102747.81
2023-05-19T17:39:25.626Z,102756.31
2023-05-19T17:41:52.410Z,102761.81
2023-05-19T17:44:19.221Z,102766.47
2023-05-19T17:46:46.047Z,102757.72
2023-05-19T17:49:13.701Z,102737.81
2023-05-19T17:51:40.950Z,102748.00
2023-05-19T17:54:08.216Z,102764.66
2023-05-19T17:56:35.084Z,102759.38
2023-05-19T17:59:02.054Z,102766.66
2023-05-19T18:01:29.096Z,102770.38
2023-05-19T18:03:56.598Z,102754.25
2023-05-19T18:06:23.464Z,102775.31
2023-05-19T18:08:51.655Z,102770.75
2023-05-19T18:11:18.901Z,102761.69
2023-05-19T18:13:45.759Z,102745.97
2023-05-19T18:16:12.538Z,102748.44
2023-05-19T18:18:43.409Z,102759.19
2023-05-19T18:21:17.734Z,102748.59
2023-05-19T18:23:48.050Z,102753.53
2023-05-19T18:26:15.542Z,102746.59
2023-05-19T18:28:42.473Z,102725.41
2023-05-19T18:31:11.000Z,102746.31
2023-05-19T18:33:37.779Z,102758.09
2023-05-19T18:36:04.764Z,102755.16
2023-05-19T18:38:31.522Z,102743.81
2023-05-19T18:40:59.224Z,102764.22
2023-05-19T18:43:26.086Z,102762.13
2023-05-19T18:45:53.009Z,102777.47
2023-05-19T18:48:20.323Z,102768.25
2023-05-19T18:50:47.171Z,102775.38
2023-05-19T18:53:13.898Z,102780.75
2023-05-19T18:55:40.837Z,102754.47
2023-05-19T18:58:07.740Z,102770.75
2023-05-19T19:00:37.590Z,102753.34
2023-05-19T19:03:04.540Z,102763.09
2023-05-19T19:05:31.432Z,102768.69
2023-05-19T19:07:58.265Z,102760.38
2023-05-19T19:10:25.066Z,102763.66
2023-05-19T19:12:51.870Z,102766.47
2023-05-19T19:15:18.640Z,102744.53
2023-05-19T19:17:45.802Z,102753.03
2023-05-19T19:20:13.038Z,102751.66
2023-05-19T19:22:39.828Z,102779.69
2023-05-19T19:25:06.901Z,102767.84
2023-05-19T19:27:35.606Z,102771.09
2023-05-19T19:30:02.576Z,102761.13
2023-05-19T19:32:31.593Z,102773.31
2023-05-19T19:34:58.436Z,102765.75
2023-05-19T19:37:25.216Z,102780.97
2023-05-19T19:39:52.009Z,102755.00
2023-05-19T19:42:19.002Z,102760.91
2023-05-19T19:44:46.051Z,102763.19
2023-05-19T19:47:12.811Z,102768.47
2023-05-19T19:49:39.653Z,102765.31
2023-05-19T19:52:06.437Z,102765.31
2023-05-19T19:54:33.189Z,102765.31
2023-05-19T19:56:59.921Z,102763.53
2023-05-19T19:59:27.001Z,102757.63
2023-05-19T20:01:53.878Z,102758.34
2023-05-19T20:04:20.856Z,102771.84
2023-05-19T20:06:47.825Z,102752.19
2023-05-19T20:09:14.641Z,102762.16
2023-05-19T20:11:41.413Z,102769.09
2023-05-19T20:14:08.193Z,102762.03
2023-05-19T20:16:34.967Z,102769.72
2023-05-19T20:19:01.814Z,102780.97
2023-05-19T20:21:28.730Z,102771.72
2023-05-19T20:23:55.489Z,102787.72
2023-05-19T20:26:22.611Z,102785.06
2023-05-19T20:28:49.384Z,102779.00
2023-05-19T20:31:16.207Z,102762.38
2023-05-19T20:33:43.024Z,102785.91
2023-05-19T20:36:11.060Z,102788.66
2023-05-19T20:38:37.876Z,102796.44
2023-05-19T20:41:04.786Z,102779.19
2023-05-19T20:43:32.175Z,102788.53
2023-05-19T20:45:59.831Z,102796.22
2023-05-19T20:48:26.833Z,102758.28
2023-05-19T20:50:54.172Z,102792.75
2023-05-19T20:53:21.668Z,102794.22
2023-05-19T20:55:48.586Z,102789.38
2023-05-19T20:58:15.545Z,102795.19
2023-05-19T21:00:42.286Z,102797.50
2023-05-19T21:03:09.164Z,102799.16
2023-05-19T21:05:36.352Z,102781.19
2023-05-19T21:08:03.230Z,102791.09
2023-05-19T21:10:29.986Z,102785.06
2023-05-19T21:12:58.867Z,102781.81
2023-05-19T21:15:27.038Z,102795.38
2023-05-19T21:17:53.902Z,102787.19
2023-05-19T21:20:20.933Z,102796.44
2023-05-19T21:22:47.704Z,102800.66
2023-05-19T21:25:14.645Z,102789.69
2023-05-19T21:27:41.475Z,102783.19
2023-05-19T21:30:09.850Z,102778.13
2023-05-19T21:32:36.669Z,102784.22
2023-05-19T21:35:03.799Z,102779.91
2023-05-19T21:37:30.537Z,102789.28
2023-05-19T21:39:57.465Z,102797.28
2023-05-19T21:42:24.215Z,102774.88
2023-05-19T21:44:51.111Z,102792.84
2023-05-19T21:47:17.868Z,102795.06
2023-05-19T21:49:44.634Z,102778.44
2023-05-19T21:52:11.506Z,102770.97
2023-05-19T21:54:38.300Z,102791.91
2023-05-19T21:57:05.633Z,102778.25
2023-05-19T21:59:32.465Z,102789.28
2023-05-19T22:01:59.295Z,102792.94
2023-05-19T22:04:26.676Z,102798.81
2023-05-19T22:06:53.456Z,102794.72
2023-05-19T22:09:20.280Z,102778.66
2023-05-19T22:11:47.130Z,102790.44
2023-05-19T22:14:14.096Z,102793.91
2023-05-19T22:16:41.126Z,102793.25
2023-05-19T22:19:08.293Z,102797.56
2023-05-19T22:21:35.175Z,102787.56
2023-05-19T22:24:02.166Z,102785.25
2023-05-19T22:26:29.036Z,102787.69
2023-05-19T22:28:55.921Z,102802.72
2023-05-19T22:31:22.713Z,102791.88
2023-05-19T22:33:49.549Z,102794.28
2023-05-19T22:36:16.574Z,102799.16
2023-05-19T22:38:43.468Z,102789.88
2023-05-19T22:41:10.301Z,102780.72
2023-05-19T22:43:37.154Z,102766.56
2023-05-19T22:46:04.158Z,102788.59
2023-05-19T22:48:31.677Z,102792.81
2023-05-19T22:50:58.471Z,102794.41
2023-05-19T22:53:25.290Z,102787.88
2023-05-19T22:55:52.157Z,102797.38
2023-05-19T22:58:19.053Z,102780.31
2023-05-19T23:00:46.010Z,102783.47
2023-05-19T23:03:12.903Z,102780.41
2023-05-19T23:05:40.345Z,102769.38
2023-05-19T23:08:07.198Z,102767.16
2023-05-19T23:10:34.026Z,102758.97
2023-05-19T23:13:00.839Z,102760.31
2023-05-19T23:15:27.631Z,102769.22
2023-05-19T23:17:54.508Z,102779.06
2023-05-19T23:20:21.326Z,102779.16
2023-05-19T23:22:48.145Z,102782.09
2023-05-19T23:25:15.016Z,102789.84
2023-05-19T23:27:41.840Z,102781.66
2023-05-19T23:30:09.138Z,102790.28
2023-05-19T23:32:36.110Z,102785.88
2023-05-19T23:35:16.814Z,102793.53
2023-05-19T23:37:43.643Z,102782.69
2023-05-19T23:40:10.680Z,102786.25
2023-05-19T23:42:37.539Z,102794.69
2023-05-19T23:45:04.844Z,102799.72
2023-05-19T23:47:31.637Z,102781.00
2023-05-19T23:49:58.570Z,102802.97
2023-05-19T23:52:25.339Z,102808.16
2023-05-19T23:54:52.122Z,102786.91
2023-05-19T23:57:18.859Z,102804.69
2023-05-19T23:59:45.807Z,102783.56
